createdAt,value
2023-05-05T00:05:11.301Z,10.30
2023-05-05T00:11:57.733Z,10.20
2023-05-05T00:17:26.859Z,10.10
2023-05-05T00:24:29.133Z,10.00
2023-05-05T00:43:18.979Z,9.70
2023-05-05T00:48:46.929Z,9.60
2023-05-05T00:54:15.216Z,9.60
2023-05-05T00:59:43.778Z,9.50
2023-05-05T01:05:14.169Z,9.40
2023-05-05T01:10:59.002Z,9.30
2023-05-05T01:16:33.464Z,9.30
2023-05-05T01:22:04.102Z,9.20
2023-05-05T01:28:33.364Z,9.10
2023-05-05T01:34:07.860Z,9.00
2023-05-05T01:39:37.884Z,9.00
2023-05-05T01:45:09.679Z,8.90
2023-05-05T01:50:38.349Z,8.90
2023-05-05T01:56:08.040Z,8.80
2023-05-05T02:01:49.867Z,8.70
2023-05-05T02:07:26.404Z,8.70
2023-05-05T02:13:42.665Z,8.60
2023-05-05T02:19:13.532Z,8.60
2023-05-05T02:24:52.258Z,8.50
2023-05-05T02:30:21.189Z,8.50
2023-05-05T02:35:54.996Z,8.40
2023-05-05T02:41:36.618Z,8.40
2023-05-05T02:47:49.433Z,8.30
2023-05-05T02:53:57.243Z,8.30
2023-05-05T03:00:24.374Z,8.20
2023-05-05T03:06:23.692Z,8.10
2023-05-05T03:12:07.014Z,8.10
2023-05-05T03:17:54.501Z,8.10
2023-05-05T03:23:31.179Z,8.10
2023-05-05T03:29:00.924Z,8.10
2023-05-05T03:34:32.298Z,8.10
2023-05-05T03:40:03.996Z,8.10
2023-05-05T03:45:33.282Z,8.10
2023-05-05T03:51:01.526Z,8.20
2023-05-05T03:56:32.230Z,8.20
2023-05-05T04:02:00.281Z,8.20
2023-05-05T04:07:28.227Z,8.20
2023-05-05T04:12:57.056Z,8.30
2023-05-05T04:18:25.467Z,8.40
2023-05-05T04:23:53.717Z,8.50
2023-05-05T04:29:22.967Z,8.60
2023-05-05T04:34:51.070Z,8.80
2023-05-05T04:40:19.817Z,8.90
2023-05-05T04:45:55.975Z,9.00
2023-05-05T04:51:28.040Z,9.30
2023-05-05T04:56:56.576Z,9.60
2023-05-05T05:02:29.137Z,9.90
2023-05-05T05:07:57.486Z,10.20
2023-05-05T05:13:26.305Z,10.70
2023-05-05T05:18:54.857Z,11.10
2023-05-05T05:24:25.027Z,11.40
2023-05-05T05:29:54.621Z,11.60
2023-05-05T05:35:22.632Z,11.70
2023-05-05T05:40:50.830Z,12.20
2023-05-05T05:46:19.465Z,12.60
2023-05-05T05:51:48.101Z,13.00
2023-05-05T05:57:16.481Z,13.30
2023-05-05T06:02:44.627Z,13.70
2023-05-05T06:08:16.363Z,14.20
2023-05-05T06:13:49.098Z,14.70
2023-05-05T06:19:18.870Z,15.20
2023-05-05T06:24:47.215Z,15.40
2023-05-05T06:30:17.873Z,15.40
2023-05-05T06:35:45.835Z,15.50
2023-05-05T06:41:13.823Z,15.60
2023-05-05T06:46:43.662Z,15.80
2023-05-05T06:52:11.645Z,16.40
2023-05-05T06:57:39.810Z,16.70
2023-05-05T07:03:09.122Z,16.90
2023-05-05T07:08:39.281Z,17.30
2023-05-05T07:14:10.282Z,17.60
2023-05-05T07:19:44.516Z,17.70
2023-05-05T07:25:12.759Z,18.00
2023-05-05T07:30:40.651Z,18.20
2023-05-05T07:36:09.102Z,18.50
2023-05-05T07:41:44.699Z,18.70
2023-05-05T07:47:13.006Z,19.00
2023-05-05T07:58:11.982Z,19.50
2023-05-05T08:03:41.748Z,19.80
2023-05-05T08:09:13.943Z,20.10
2023-05-05T08:14:43.033Z,20.20
2023-05-05T08:20:11.221Z,20.30
2023-05-05T08:25:39.402Z,20.60
2023-05-05T08:31:11.072Z,20.60
2023-05-05T08:36:43.707Z,20.80
2023-05-05T08:42:29.269Z,21.10
2023-05-05T08:48:19.641Z,21.40
2023-05-05T08:54:03.923Z,21.60
2023-05-05T09:00:10.822Z,21.80
2023-05-05T09:05:44.949Z,21.90
2023-05-05T09:11:41.486Z,22.00
2023-05-05T09:17:27.253Z,22.20
2023-05-05T09:22:55.323Z,22.30
2023-05-05T09:28:31.428Z,22.60
2023-05-05T09:34:03.768Z,22.20
2023-05-05T09:39:35.489Z,21.90
2023-05-05T09:45:31.569Z,22.10
2023-05-05T09:51:29.801Z,22.20
2023-05-05T09:56:58.247Z,22.50
2023-05-05T10:02:36.642Z,22.90
2023-05-05T10:08:16.277Z,23.20
2023-05-05T10:13:45.903Z,23.30
2023-05-05T10:19:58.829Z,23.50
2023-05-05T10:25:31.872Z,23.50
2023-05-05T10:31:12.852Z,23.60
2023-05-05T10:36:49.670Z,23.70
2023-05-05T10:42:27.800Z,23.90
2023-05-05T10:48:01.503Z,24.20
2023-05-05T10:53:44.727Z,24.10
2023-05-05T10:59:38.108Z,24.20
2023-05-05T11:05:26.339Z,24.20
2023-05-05T11:10:57.949Z,24.40
2023-05-05T11:16:48.145Z,24.10
2023-05-05T11:22:16.760Z,24.00
2023-05-05T11:28:16.943Z,23.90
2023-05-05T11:33:46.221Z,24.10
2023-05-05T11:39:55.258Z,23.90
2023-05-05T11:45:25.009Z,23.60
2023-05-05T11:50:54.337Z,23.30
2023-05-05T11:56:23.499Z,23.60
2023-05-05T12:01:51.989Z,23.70
2023-05-05T12:13:33.593Z,23.50
2023-05-05T12:19:11.115Z,23.60
2023-05-05T12:24:40.268Z,23.70
2023-05-05T12:30:44.356Z,23.40
2023-05-05T12:36:12.774Z,23.40
2023-05-05T12:47:46.637Z,23.60
2023-05-05T12:53:25.190Z,23.60
2023-05-05T12:58:55.709Z,23.70
2023-05-05T13:04:28.208Z,23.60
2023-05-05T13:10:10.914Z,23.40
2023-05-05T13:15:41.362Z,23.50
2023-05-05T13:22:16.292Z,23.90
2023-05-05T13:27:44.370Z,24.20
2023-05-05T13:33:12.384Z,24.30
2023-05-05T13:38:40.929Z,24.50
2023-05-05T13:44:22.373Z,24.60
2023-05-05T13:49:51.353Z,24.70
2023-05-05T13:55:24.496Z,24.90
2023-05-05T14:00:52.919Z,25.20
2023-05-05T14:06:20.951Z,25.10
2023-05-05T14:11:54.882Z,25.30
2023-05-05T14:17:23.250Z,25.20
2023-05-05T14:22:50.989Z,25.10
2023-05-05T14:28:44.964Z,25.00
2023-05-05T14:34:12.865Z,25.10
2023-05-05T14:39:53.436Z,25.10
2023-05-05T14:45:25.046Z,25.40
2023-05-05T14:51:23.649Z,25.10
2023-05-05T14:56:53.016Z,24.90
2023-05-05T15:02:24.556Z,24.60
2023-05-05T15:07:52.501Z,24.30
2023-05-05T15:13:20.480Z,24.00
2023-05-05T15:18:49.461Z,23.80
2023-05-05T15:24:24.516Z,23.60
2023-05-05T15:29:55.739Z,23.50
2023-05-05T15:35:27.317Z,23.30
2023-05-05T15:41:00.472Z,23.20
2023-05-05T15:46:39.369Z,23.20
2023-05-05T15:52:08.018Z,23.30
2023-05-05T15:57:44.254Z,23.40
2023-05-05T16:03:16.071Z,23.50
2023-05-05T16:08:51.457Z,23.30
2023-05-05T16:14:22.507Z,23.10
2023-05-05T16:19:50.685Z,23.00
2023-05-05T16:25:19.909Z,22.90
2023-05-05T16:30:47.785Z,22.90
2023-05-05T16:36:16.101Z,23.00
2023-05-05T16:41:44.209Z,23.00
2023-05-05T16:47:11.969Z,22.90
2023-05-05T16:52:39.932Z,22.70
2023-05-05T16:58:08.028Z,22.50
2023-05-05T17:03:38.437Z,22.20
2023-05-05T17:09:06.906Z,22.10
2023-05-05T17:14:35.640Z,21.90
2023-05-05T17:20:04.927Z,21.80
2023-05-05T17:25:33.263Z,21.60
2023-05-05T17:31:02.293Z,21.50
2023-05-05T17:36:31.877Z,21.40
2023-05-05T17:42:00.207Z,21.30
2023-05-05T17:47:28.843Z,21.20
2023-05-05T17:52:57.377Z,21.10
2023-05-05T17:58:25.822Z,20.90
2023-05-05T18:03:53.939Z,20.80
2023-05-05T18:09:22.440Z,20.60
2023-05-05T18:14:50.689Z,20.50
2023-05-05T18:20:19.119Z,20.40
2023-05-05T18:25:55.906Z,20.20
2023-05-05T18:31:25.272Z,20.10
2023-05-05T18:36:57.225Z,20.00
2023-05-05T18:42:36.138Z,19.90
2023-05-05T18:48:04.643Z,19.80
2023-05-05T18:53:43.362Z,19.70
2023-05-05T18:59:13.052Z,19.60
2023-05-05T19:04:41.494Z,19.40
2023-05-05T19:10:10.751Z,16.90
2023-05-05T19:15:39.055Z,15.10
2023-05-05T19:21:08.346Z,14.10
2023-05-05T19:26:37.303Z,13.10
2023-05-05T19:32:08.872Z,12.30
2023-05-05T19:37:39.595Z,11.80
2023-05-05T19:43:08.670Z,11.40
2023-05-05T19:48:37.061Z,11.30
2023-05-05T19:54:13.324Z,11.30
2023-05-05T19:59:41.907Z,11.40
2023-05-05T20:05:14.120Z,11.40
2023-05-05T20:10:42.416Z,11.40
2023-05-05T20:16:11.167Z,11.50
2023-05-05T20:21:40.192Z,11.60
2023-05-05T20:27:08.368Z,11.60
2023-05-05T20:32:36.862Z,11.70
2023-05-05T20:38:05.133Z,11.80
2023-05-05T20:43:34.482Z,11.80
2023-05-05T20:49:02.709Z,11.90
2023-05-05T20:54:35.071Z,11.90
2023-05-05T21:00:04.356Z,12.00
2023-05-05T21:05:32.503Z,12.00
2023-05-05T21:11:00.871Z,12.00
2023-05-05T21:16:29.118Z,12.00
2023-05-05T21:21:59.321Z,12.10
2023-05-05T21:27:27.524Z,12.10
2023-05-05T21:32:55.740Z,12.10
2023-05-05T21:38:24.198Z,12.10
2023-05-05T21:43:52.371Z,12.10
2023-05-05T21:49:20.516Z,12.20
2023-05-05T21:54:48.729Z,12.10
2023-05-05T22:00:17.082Z,12.20
2023-05-05T22:05:45.521Z,12.10
2023-05-05T22:11:13.728Z,12.20
2023-05-05T22:16:41.887Z,12.20
2023-05-05T22:22:10.698Z,12.20
2023-05-05T22:27:39.103Z,12.20
2023-05-05T22:33:07.461Z,12.20
2023-05-05T22:38:35.801Z,12.20
2023-05-05T22:44:03.985Z,12.20
2023-05-05T22:49:32.095Z,12.20
2023-05-05T22:55:00.397Z,12.20
2023-05-05T23:00:28.690Z,12.20
2023-05-05T23:05:56.851Z,12.20
2023-05-05T23:11:25.955Z,12.20
2023-05-05T23:16:54.293Z,12.20
2023-05-05T23:22:22.445Z,12.20
2023-05-05T23:27:50.802Z,12.20
2023-05-05T23:33:19.514Z,12.20
2023-05-05T23:38:47.648Z,12.20
2023-05-05T23:44:15.895Z,12.20
2023-05-05T23:49:44.312Z,12.20
2023-05-05T23:55:12.985Z,12.20
